createdAt,value
2019-03-17T00:00:03.231Z,987.16
2019-03-17T00:05:10.570Z,987.11
2019-03-17T00:10:10.337Z,987.05
2019-03-17T00:15:08.390Z,986.98
2019-03-17T00:20:09.423Z,986.89
2019-03-17T00:25:14.198Z,986.88
2019-03-17T00:30:03.292Z,986.91
2019-03-17T00:35:07.271Z,986.96
2019-03-17T00:40:07.089Z,986.92
2019-03-17T00:45:03.582Z,986.88
2019-03-17T00:50:05.976Z,986.81
2019-03-17T00:55:06.460Z,986.68
2019-03-17T01:00:03.554Z,986.62
2019-03-17T01:05:05.978Z,986.59
2019-03-17T01:10:07.342Z,986.52
2019-03-17T01:15:04.235Z,986.43
2019-03-17T01:20:05.222Z,986.3
2019-03-17T01:25:07.196Z,986.21
2019-03-17T01:30:03.898Z,986.12
2019-03-17T01:35:11.289Z,986.07
2019-03-17T01:40:07.215Z,986.03
2019-03-17T01:45:04.097Z,985.97
2019-03-17T01:50:06.043Z,985.89
2019-03-17T01:55:05.558Z,985.79
2019-03-17T02:00:05.173Z,985.69
2019-03-17T02:05:22.453Z,985.56
2019-03-17T02:10:18.315Z,985.59
2019-03-17T02:15:08.405Z,985.46
2019-03-17T02:20:08.764Z,985.37
2019-03-17T02:25:04.668Z,985.4
2019-03-17T02:30:06.240Z,985.3
2019-03-17T02:35:06.651Z,985.25
2019-03-17T02:40:08.033Z,985.16
2019-03-17T02:45:03.145Z,985.18
2019-03-17T02:50:07.715Z,985.13
2019-03-17T02:55:07.659Z,985.1
2019-03-17T03:00:03.640Z,985.04
2019-03-17T03:05:07.343Z,984.96
2019-03-17T03:10:07.130Z,985.1
2019-03-17T03:15:03.889Z,985.04
2019-03-17T03:20:11.947Z,984.96
2019-03-17T03:25:07.751Z,985.03
2019-03-17T03:30:12.362Z,985.02
2019-03-17T03:35:11.726Z,984.99
2019-03-17T03:40:09.465Z,985.07
2019-03-17T03:45:09.680Z,984.71
2019-03-17T03:50:10.148Z,984.47
2019-03-17T03:55:05.713Z,984.27
2019-03-17T04:00:07.206Z,984.16
2019-03-17T04:05:09.474Z,984.07
2019-03-17T04:10:06.199Z,984.07
2019-03-17T04:15:06.588Z,984.11
2019-03-17T04:20:09.573Z,984.17
2019-03-17T04:25:08.387Z,984.16
2019-03-17T04:30:04.003Z,984.21
2019-03-17T04:35:08.526Z,984.29
2019-03-17T04:40:07.889Z,984.32
2019-03-17T04:45:04.537Z,984.32
2019-03-17T04:50:07.757Z,984.28
2019-03-17T04:55:06.631Z,984.28
2019-03-17T05:00:03.178Z,984.29
2019-03-17T05:05:07.482Z,984.24
2019-03-17T05:10:03.889Z,984.22
2019-03-17T05:15:08.080Z,984.22
2019-03-17T05:20:07.234Z,984.21
2019-03-17T05:25:08.258Z,984.23
2019-03-17T05:30:02.807Z,984.34
2019-03-17T05:35:08.319Z,984.32
2019-03-17T05:40:06.691Z,984.26
2019-03-17T05:45:03.161Z,984.2
2019-03-17T05:50:07.837Z,984.23
2019-03-17T05:55:07.545Z,984.36
2019-03-17T06:00:03.070Z,984.39
2019-03-17T06:05:06.080Z,984.37
2019-03-17T06:10:02.850Z,984.52
2019-03-17T06:15:07.428Z,984.49
2019-03-17T06:20:09.332Z,984.5
2019-03-17T06:25:08.129Z,984.48
2019-03-17T06:30:02.685Z,984.59
2019-03-17T06:35:05.928Z,984.52
2019-03-17T06:40:06.120Z,984.4
2019-03-17T06:45:02.680Z,984.46
2019-03-17T06:50:04.491Z,984.56
2019-03-17T06:55:04.280Z,984.58
2019-03-17T07:00:02.768Z,984.74
2019-03-17T07:05:04.735Z,984.86
2019-03-17T07:10:04.492Z,984.82
2019-03-17T07:15:04.081Z,984.86
2019-03-17T07:20:06.676Z,984.85
2019-03-17T07:25:08.184Z,984.88
2019-03-17T07:30:03.796Z,984.98
2019-03-17T07:35:07.392Z,985.02
2019-03-17T07:40:09.224Z,985.1
2019-03-17T07:45:03.976Z,985.12
2019-03-17T07:50:07.718Z,985.08
2019-03-17T07:55:09.816Z,985.24
2019-03-17T08:00:04.687Z,985.39
2019-03-17T08:05:08.475Z,985.41
2019-03-17T08:10:09.557Z,985.56
2019-03-17T08:15:06.343Z,985.85
2019-03-17T08:20:09.377Z,986.5
2019-03-17T08:25:07.897Z,986.5
2019-03-17T08:30:04.431Z,986.55
2019-03-17T08:35:09.101Z,986.66
2019-03-17T08:40:07.327Z,986.74
2019-03-17T08:45:03.975Z,986.68
2019-03-17T08:50:08.213Z,986.74
2019-03-17T08:55:07.564Z,986.78
2019-03-17T09:00:04.200Z,986.77
2019-03-17T09:05:06.064Z,986.67
2019-03-17T09:10:06.803Z,986.79
2019-03-17T09:15:04.337Z,986.81
2019-03-17T09:20:06.785Z,987.01
2019-03-17T09:25:09.924Z,986.95
2019-03-17T09:30:04.413Z,986.87
2019-03-17T09:35:06.830Z,987.01
2019-03-17T09:40:09.886Z,986.95
2019-03-17T09:45:04.617Z,986.93
2019-03-17T09:50:07.090Z,986.99
2019-03-17T09:55:09.216Z,987.16
2019-03-17T10:00:03.884Z,987.19
2019-03-17T10:05:10.078Z,987.08
2019-03-17T10:10:07.062Z,987.1
2019-03-17T10:15:03.863Z,987.12
2019-03-17T10:20:09.826Z,987.13
2019-03-17T10:25:08.956Z,987.24
2019-03-17T10:30:04.000Z,987.27
2019-03-17T10:35:07.102Z,987.34
2019-03-17T10:40:07.247Z,987.45
2019-03-17T10:45:03.993Z,987.35
2019-03-17T10:50:08.083Z,987.32
2019-03-17T10:55:05.784Z,987.28
2019-03-17T11:00:04.443Z,987.36
2019-03-17T11:05:06.604Z,987.43
2019-03-17T11:10:07.246Z,987.42
2019-03-17T11:15:02.859Z,987.62
2019-03-17T11:20:06.587Z,987.78
2019-03-17T11:25:07.529Z,987.9
2019-03-17T11:30:03.086Z,987.88
2019-03-17T11:35:06.208Z,987.97
2019-03-17T11:40:06.953Z,987.94
2019-03-17T11:45:03.432Z,988
2019-03-17T11:50:06.933Z,987.89
2019-03-17T11:55:07.482Z,987.91
2019-03-17T12:00:02.967Z,987.79
2019-03-17T12:05:07.623Z,987.94
2019-03-17T12:10:08.457Z,987.99
2019-03-17T12:15:03.001Z,988.19
2019-03-17T12:20:06.656Z,988.08
2019-03-17T12:25:11.827Z,988.1
2019-03-17T12:30:03.316Z,988.01
2019-03-17T12:35:07.401Z,988.16
2019-03-17T12:40:08.289Z,988.25
2019-03-17T12:45:02.846Z,988.23
2019-03-17T12:50:07.882Z,988.32
2019-03-17T12:55:06.428Z,988.25
2019-03-17T13:00:02.994Z,988.21
2019-03-17T13:05:07.417Z,988.2
2019-03-17T13:10:19.389Z,988.27
2019-03-17T13:15:02.922Z,988.33
2019-03-17T13:20:04.631Z,988.37
2019-03-17T13:25:04.822Z,988.44
2019-03-17T13:30:03.410Z,988.45
2019-03-17T13:35:04.525Z,988.63
2019-03-17T13:40:06.475Z,988.58
2019-03-17T13:45:03.682Z,988.62
2019-03-17T13:50:06.069Z,988.7
2019-03-17T13:55:05.413Z,988.82
2019-03-17T14:00:03.469Z,988.96
2019-03-17T14:05:08.283Z,989.02
2019-03-17T14:10:15.677Z,989.38
2019-03-17T14:15:04.302Z,989.38
2019-03-17T14:20:05.727Z,989.41
2019-03-17T14:25:07.979Z,989.42
2019-03-17T14:30:04.613Z,989.55
2019-03-17T14:35:06.415Z,989.56
2019-03-17T14:40:07.132Z,989.57
2019-03-17T14:45:03.756Z,989.53
2019-03-17T14:50:07.082Z,989.6
2019-03-17T14:55:06.949Z,989.74
2019-03-17T15:00:04.471Z,989.84
2019-03-17T15:05:07.718Z,989.94
2019-03-17T15:10:08.693Z,990.15
2019-03-17T15:15:04.293Z,990.33
2019-03-17T15:20:06.677Z,990.56
2019-03-17T15:25:10.252Z,990.88
2019-03-17T15:30:03.949Z,990.97
2019-03-17T15:35:07.455Z,991.02
2019-03-17T15:40:09.684Z,991.08
2019-03-17T15:45:05.743Z,991.14
2019-03-17T15:50:09.838Z,991.18
2019-03-17T15:55:07.845Z,991.26
2019-03-17T16:00:04.449Z,991.24
2019-03-17T16:05:10.251Z,991.26
2019-03-17T16:10:07.289Z,991.18
2019-03-17T16:15:03.950Z,991.11
2019-03-17T16:20:08.022Z,991.22
2019-03-17T16:25:07.870Z,991.33
2019-03-17T16:30:04.409Z,991.44
2019-03-17T16:35:07.607Z,991.45
2019-03-17T16:40:06.332Z,991.6
2019-03-17T16:45:03.951Z,991.77
2019-03-17T16:50:07.977Z,991.94
2019-03-17T16:55:08.175Z,991.95
2019-03-17T17:00:03.977Z,991.98
2019-03-17T17:05:08.864Z,992
2019-03-17T17:10:06.601Z,992
2019-03-17T17:15:04.251Z,992.22
2019-03-17T17:20:06.081Z,992.2
2019-03-17T17:25:07.288Z,992.26
2019-03-17T17:30:02.841Z,992.41
2019-03-17T17:35:06.583Z,992.5
2019-03-17T17:40:07.192Z,992.51
2019-03-17T17:45:02.755Z,992.64
2019-03-17T17:50:06.446Z,992.63
2019-03-17T17:55:07.053Z,992.74
2019-03-17T18:00:02.645Z,992.89
2019-03-17T18:05:07.111Z,992.99
2019-03-17T18:10:06.724Z,993.06
2019-03-17T18:15:03.257Z,993.21
2019-03-17T18:20:05.862Z,992.97
2019-03-17T18:25:07.884Z,993.39
2019-03-17T18:30:03.359Z,993.79
2019-03-17T18:35:06.350Z,994.03
2019-03-17T18:40:07.030Z,994.2
2019-03-17T18:45:02.547Z,994.28
2019-03-17T18:50:20.842Z,994.43
2019-03-17T18:55:09.319Z,994.5
2019-03-17T19:00:05.169Z,994.46
2019-03-17T19:05:07.981Z,994.42
2019-03-17T19:10:10.050Z,994.48
2019-03-17T19:15:03.799Z,994.52
2019-03-17T19:20:09.582Z,994.57
2019-03-17T19:25:08.404Z,994.67
2019-03-17T19:30:02.940Z,994.7
2019-03-17T19:35:09.313Z,994.69
2019-03-17T19:40:07.290Z,994.72
2019-03-17T19:45:02.939Z,994.7
2019-03-17T19:50:06.278Z,994.81
2019-03-17T19:55:05.483Z,994.75
2019-03-17T20:00:02.957Z,994.79
2019-03-17T20:05:07.108Z,994.8
2019-03-17T20:10:05.851Z,994.89
2019-03-17T20:15:03.303Z,994.99
2019-03-17T20:20:05.908Z,995.04
2019-03-17T20:25:06.139Z,995.02
2019-03-17T20:30:03.154Z,995.23
2019-03-17T20:35:05.649Z,995.28
2019-03-17T20:40:13.161Z,995.28
2019-03-17T20:45:06.144Z,995.42
2019-03-17T20:50:08.649Z,995.41
2019-03-17T20:55:10.320Z,995.45
2019-03-17T21:00:10.975Z,995.54
2019-03-17T21:05:10.295Z,995.59
2019-03-17T21:10:10.612Z,995.57
2019-03-17T21:15:12.543Z,995.57
2019-03-17T21:20:11.251Z,995.63
2019-03-17T21:25:10.089Z,995.69
2019-03-17T21:30:12.176Z,995.71
2019-03-17T21:35:16.046Z,995.76
2019-03-17T21:40:09.047Z,995.81
2019-03-17T21:45:15.330Z,995.94
2019-03-17T21:50:16.133Z,995.99
2019-03-17T21:55:11.297Z,995.99
2019-03-17T22:00:13.317Z,995.97
2019-03-17T22:05:12.094Z,995.93
2019-03-17T22:10:06.043Z,995.9
2019-03-17T22:15:11.114Z,995.89
2019-03-17T22:20:13.135Z,995.92
2019-03-17T22:25:13.167Z,995.96
2019-03-17T22:30:11.651Z,995.95
2019-03-17T22:35:13.359Z,995.98
2019-03-17T22:40:11.799Z,995.99
2019-03-17T22:45:10.379Z,996.02
2019-03-17T22:50:12.392Z,996.08
2019-03-17T22:55:16.184Z,996.2
2019-03-17T23:00:14.320Z,996.33
2019-03-17T23:05:19.177Z,996.38
2019-03-17T23:10:15.495Z,996.43
2019-03-17T23:15:13.716Z,996.45
2019-03-17T23:20:13.381Z,996.32
2019-03-17T23:25:11.560Z,996.29
2019-03-17T23:30:11.728Z,996.32
2019-03-17T23:35:11.571Z,996.33
2019-03-17T23:40:15.382Z,996.27
2019-03-17T23:45:15.260Z,996.25
2019-03-17T23:50:17.519Z,996.24
2019-03-17T23:55:13.543Z,996.19
